Etusivu
METAR-TAF:

METAR-TAF

Lentoasemat :

Oslo, Norja

Gardermoenin lentoasema

Leveyspiiri: 60-12N, Pituuspiiri: 011-05E, korkeus merenpinnasta: 208 m

Tämänhetkinen sää

Tämä raportti tehtiin 33 minuuttia sitten, kello 20.50 UTC
Tuuli 3 kn pohjoisesta
Lämpötila 9°C
Kosteus 61%
Ilmanpaine 1015 hPa
Näkyvyys 10 km tai enemmän
ei pilviä alle 1500 m:ssä eikä cumulonimbus-pilviä

METAR: ENGM 222050Z 35003KT CAVOK 09/02 Q1015 NOSIG

Aika: 23:23 (21:23 UTC)

Sääennuste

Ennuste voimassa 22. päivästä klo 18 UTC - 23. päivään klo 18 UTC
Tuuli 5 kn eri suunnista
Näkyvyys 10 km tai enemmän
Muutamia pilviä 3000 ft:n korkeudessa
Hajonneita pilviä 6000 ft:n korkeudessa

TAF: ENGM 2218/2318 VRB05KT 9999 FEW030 BKN060

Säähavainnot ja -ennusteet yli 4000 lentoasemalta (METAR- ja TAF-raportit).

Käytössä olevat sääasemat on merkitty karttaan keltaisilla ja punaisilla pisteillä.

Aseta hiiri pisteen päälle nähdäksesi sääaseman nimen.

Klikkaa sitten nähdäksesi säähavainnot ja -ennusteet.

Kartan vaihtaminen: klikkaa mustalla rastilla varustettuja vihreitä pisteitä, niin voit zoomata sisään; viivalla varustettua vihreää pistettä, niin voit zoomata ulos tai vihreitä nuolia, niin pääset viereisille kartoille.


METAR-TAF: